Terminal Aerodrome Forecast
Issued by NWS Cleveland, OH

Home | Current Version | Previous Version | Text Only | Print | Product List | Glossary Off
Versions: 1 2 3 4 5 6 7 8 9 10 11 12 13 14 15 16

000
FTUS41 KCLE 301700
TAFYNG
TAF
KYNG 301731Z 3018/0118 32010KT P6SM VCSH SCT035 BKN080 OVC250
      TEMPO 3019/3023 BKN015 OVC030
     FM302300 01007KT 4SM -SHRA BKN007 OVC015
     FM010700 01006KT P6SM BKN030
     FM011200 36008KT P6SM SCT060=

USA.gov is the U.S. government's official web portal to all federal, state and local government web resources and services.